Tulare, South Dakota
Current Conditions -  °F | °C
As of 9:55 AM on Monday 24 Nov 2014 (Local Time) from KHON Reporting Station
Few Clouds Few Clouds  
Wind Chill:   Ceiling: Unl
Heat Index: 18°   Visibility: 10mi
Dew Point:   Wind: 22mph
Humidity: 68%   Direction: 330°NNW
Pressure: 29.77"   Gusts: 38mph
Location:  44.74°N, 98.51°W
Report Text: KHON 241555Z AUTO 33019G33KT 10SM FEW019 M08/M13 A2977 RMK AO2 PK WND 33033/1548 UPE1457B15E20SNB02E15 SLP100 P0000 T10781128
Loading
Personal Weather Stations






























Interactive Weather Map New forecast layout! Learn more

10-Day Weather Forecast

Advertisements
Track Severe Weather on mobile